createdAt,value
2022-10-21T00:00:39.880Z,4.38
2022-10-21T00:03:07.290Z,6.93
2022-10-21T00:05:34.213Z,2.35
2022-10-21T00:08:01.181Z,2.08
2022-10-21T00:10:28.039Z,5.20
2022-10-21T00:12:55.026Z,4.22
2022-10-21T00:15:21.996Z,2.53
2022-10-21T00:17:48.867Z,1.60
2022-10-21T00:20:16.255Z,2.50
2022-10-21T00:22:43.181Z,5.57
2022-10-21T04:37:05.405Z,1.60
2022-10-21T04:39:36.796Z,2.60
2022-10-21T04:42:03.887Z,1.73
2022-10-21T04:44:30.753Z,2.00
2022-10-21T04:46:57.719Z,1.38
2022-10-21T04:49:24.528Z,1.02
2022-10-21T04:51:54.392Z,0.95
2022-10-21T04:54:21.325Z,1.25
2022-10-21T04:56:48.112Z,1.13
2022-10-21T04:59:15.080Z,2.55
2022-10-21T05:01:41.876Z,1.05
2022-10-21T05:04:11.017Z,0.93
2022-10-21T05:06:41.245Z,3.03
2022-10-21T05:09:10.138Z,1.65
2022-10-21T05:11:37.017Z,1.33
2022-10-21T05:14:04.689Z,0.65
2022-10-21T05:16:35.493Z,1.08
2022-10-21T05:19:02.475Z,1.13
2022-10-21T05:21:29.293Z,2.70
2022-10-21T05:23:56.229Z,2.47
2022-10-21T05:26:25.256Z,4.28
2022-10-21T05:28:55.972Z,1.60
2022-10-21T05:31:23.021Z,2.28
2022-10-21T05:33:49.981Z,1.25
2022-10-21T05:36:18.514Z,1.20
2022-10-21T05:38:50.596Z,1.33
2022-10-21T05:41:17.506Z,1.55
2022-10-21T05:43:44.515Z,2.85
2022-10-21T05:46:11.372Z,0.80
2022-10-21T05:48:38.599Z,1.92
2022-10-21T05:51:08.144Z,1.10
2022-10-21T05:53:35.961Z,1.17
2022-10-21T05:56:07.862Z,3.10
2022-10-21T05:58:35.079Z,1.58
2022-10-21T06:01:02.384Z,3.45
2022-10-21T06:03:32.360Z,4.28
2022-10-21T06:06:07.865Z,2.55
2022-10-21T06:08:37.125Z,3.85
2022-10-21T06:11:09.719Z,2.65
2022-10-21T06:13:38.039Z,1.50
2022-10-21T06:18:38.808Z,1.10
2022-10-21T06:21:06.638Z,1.33
2022-10-21T06:23:34.090Z,0.47
2022-10-21T06:26:05.656Z,2.17
2022-10-21T06:28:34.844Z,1.42
2022-10-21T06:31:02.410Z,0.77
2022-10-21T06:33:31.902Z,0.98
2022-10-21T06:35:59.035Z,4.05
2022-10-21T06:38:26.372Z,0.60
2022-10-21T06:41:00.422Z,1.75
2022-10-21T06:43:27.509Z,1.05
2022-10-21T06:46:06.420Z,1.00
2022-10-21T06:48:33.693Z,0.77
2022-10-21T06:51:09.425Z,1.17
2022-10-21T06:53:39.386Z,1.85
2022-10-21T06:56:10.278Z,2.55
2022-10-21T06:58:43.482Z,0.80
2022-10-21T07:01:27.244Z,1.35
2022-10-21T07:03:59.233Z,0.50
2022-10-21T07:06:26.357Z,1.00
2022-10-21T07:08:58.383Z,0.70
2022-10-21T07:11:29.839Z,0.38
2022-10-21T07:13:56.710Z,0.95
2022-10-21T07:16:38.573Z,0.40
2022-10-21T07:19:06.057Z,0.88
2022-10-21T07:21:33.374Z,0.93
2022-10-21T07:24:01.031Z,1.50
2022-10-21T07:26:32.723Z,0.32
2022-10-21T07:29:00.941Z,0.77
2022-10-21T07:31:35.298Z,3.00
2022-10-21T07:36:38.202Z,19.77
2022-10-21T07:39:15.286Z,0.70
2022-10-21T07:41:54.319Z,1.15
2022-10-21T07:44:23.122Z,1.17
2022-10-21T07:46:51.440Z,2.60
2022-10-21T07:49:19.583Z,1.17
2022-10-21T07:51:47.008Z,0.88
2022-10-21T07:54:14.688Z,0.73
2022-10-21T07:56:45.052Z,0.77
2022-10-21T07:59:13.558Z,3.58
2022-10-21T08:01:44.806Z,1.23
2022-10-21T08:04:15.370Z,2.38
2022-10-21T08:06:43.204Z,2.63
2022-10-21T08:09:10.284Z,1.40
2022-10-21T08:11:37.937Z,1.05
2022-10-21T08:14:08.719Z,1.00
2022-10-21T08:16:36.674Z,0.73
2022-10-21T08:19:05.022Z,5.38
2022-10-21T08:21:31.841Z,1.42
2022-10-21T08:24:02.085Z,1.15
2022-10-21T08:26:29.105Z,1.30
2022-10-21T08:28:56.045Z,0.70
2022-10-21T08:31:23.228Z,0.82
2022-10-21T08:33:50.818Z,1.00
2022-10-21T08:36:25.068Z,12.40
2022-10-21T08:38:55.104Z,0.68
2022-10-21T08:41:31.392Z,0.68
2022-10-21T08:44:07.707Z,2.45
2022-10-21T08:47:06.940Z,1.17
2022-10-21T08:49:43.695Z,0.60
2022-10-21T08:52:16.302Z,0.57
2022-10-21T08:55:01.462Z,3.17
2022-10-21T08:57:28.951Z,2.40
2022-10-21T08:59:56.069Z,0.93
2022-10-21T09:02:49.091Z,1.40
2022-10-21T09:05:46.389Z,1.02
2022-10-21T09:08:19.037Z,6.70
2022-10-21T09:11:15.519Z,0.55
2022-10-21T09:13:47.335Z,1.40
2022-10-21T09:16:24.030Z,0.50
2022-10-21T09:19:08.157Z,0.82
2022-10-21T09:22:10.891Z,0.90
2022-10-21T09:24:58.710Z,1.35
2022-10-21T09:27:32.279Z,0.95
2022-10-21T09:30:17.052Z,0.85
2022-10-21T09:32:50.838Z,1.65
2022-10-21T09:35:29.542Z,3.20
2022-10-21T09:38:33.821Z,0.57
2022-10-21T09:41:03.597Z,1.35
2022-10-21T09:43:31.342Z,0.55
2022-10-21T09:46:04.099Z,0.60
2022-10-21T09:49:29.281Z,1.17
2022-10-21T09:51:45.750Z,0.50
2022-10-21T09:54:29.516Z,0.40
2022-10-21T09:57:15.998Z,0.50
2022-10-21T10:00:06.103Z,0.40
2022-10-21T10:02:44.009Z,0.40
2022-10-21T10:05:36.817Z,0.68
2022-10-21T10:08:45.247Z,0.28
2022-10-21T10:11:14.011Z,0.43
2022-10-21T10:13:41.813Z,0.38
2022-10-21T10:16:29.742Z,0.40
2022-10-21T10:19:18.836Z,0.40
2022-10-21T10:21:48.256Z,3.08
2022-10-21T10:24:25.983Z,0.65
2022-10-21T10:26:52.838Z,0.38
2022-10-21T10:29:29.605Z,0.65
2022-10-21T10:32:01.677Z,0.10
2022-10-21T10:34:28.518Z,0.63
2022-10-21T10:37:08.391Z,0.55
2022-10-21T10:39:38.972Z,0.50
2022-10-21T10:42:07.436Z,0.30
2022-10-21T10:44:39.691Z,0.60
2022-10-21T10:47:08.942Z,0.50
2022-10-21T10:49:42.477Z,0.50
2022-10-21T10:52:12.537Z,0.20
2022-10-21T10:54:41.336Z,0.28
2022-10-21T10:57:29.993Z,0.20
2022-10-21T11:00:21.283Z,0.10
2022-10-21T11:03:00.512Z,0.40
2022-10-21T11:05:38.799Z,0.47
2022-10-21T11:08:16.671Z,0.60
2022-10-21T11:10:46.115Z,0.50
2022-10-21T11:13:16.171Z,0.20
2022-10-21T11:16:01.078Z,0.20
2022-10-21T11:18:49.868Z,0.80
2022-10-21T11:21:25.640Z,0.25
2022-10-21T11:24:05.180Z,0.32
2022-10-21T11:26:44.608Z,0.60
2022-10-21T11:29:11.648Z,0.25
2022-10-21T11:32:11.713Z,0.10
2022-10-21T11:34:57.252Z,0.45
2022-10-21T11:37:27.083Z,1.00
2022-10-21T11:40:02.467Z,0.20
2022-10-21T11:42:42.514Z,0.32
2022-10-21T11:45:30.286Z,0.35
2022-10-21T11:48:39.469Z,7.78
2022-10-21T11:51:18.063Z,1.65
2022-10-21T11:54:07.804Z,1.38
2022-10-21T11:56:49.391Z,0.10
2022-10-21T11:59:40.780Z,0.63
2022-10-21T12:02:43.801Z,0.75
2022-10-21T12:05:34.325Z,1.75
2022-10-21T12:08:22.239Z,0.40
2022-10-21T12:11:03.896Z,0.30
2022-10-21T12:13:42.074Z,0.20
2022-10-21T12:16:13.432Z,0.75
2022-10-21T12:18:48.475Z,0.17
2022-10-21T12:21:18.753Z,0.70
2022-10-21T12:23:50.404Z,0.40
2022-10-21T12:26:33.524Z,0.10
2022-10-21T12:29:11.424Z,0.25
2022-10-21T12:31:53.814Z,0.10
2022-10-21T12:34:21.527Z,0.20
2022-10-21T12:36:50.979Z,0.20
2022-10-21T12:39:47.836Z,0.45
2022-10-21T12:42:17.215Z,0.15
2022-10-21T12:44:48.967Z,0.95
2022-10-21T12:47:34.457Z,0.30
2022-10-21T12:50:22.429Z,0.47
2022-10-21T12:53:15.778Z,0.13
2022-10-21T12:55:51.225Z,0.40
2022-10-21T12:58:41.526Z,1.67
2022-10-21T13:01:34.377Z,0.30
2022-10-21T13:04:02.266Z,0.68
2022-10-21T13:06:55.914Z,0.20
2022-10-21T13:09:51.128Z,0.10
2022-10-21T13:12:24.390Z,0.15
2022-10-21T13:14:57.169Z,0.10
2022-10-21T13:17:27.540Z,0.25
2022-10-21T13:20:06.538Z,8.85
2022-10-21T13:22:39.787Z,0.30
2022-10-21T13:25:16.259Z,0.75
2022-10-21T13:30:49.854Z,0.10
2022-10-21T13:33:29.998Z,0.17
2022-10-21T13:36:10.254Z,0.90
2022-10-21T13:38:46.768Z,0.10
2022-10-21T13:41:26.919Z,0.10
2022-10-21T13:43:55.706Z,0.10
2022-10-21T13:46:40.686Z,0.50
2022-10-21T13:49:32.889Z,0.20
2022-10-21T13:52:00.051Z,0.88
2022-10-21T13:54:34.556Z,0.15
2022-10-21T13:57:07.406Z,0.20
2022-10-21T13:59:35.294Z,0.40
2022-10-21T14:02:03.821Z,0.20
2022-10-21T14:04:32.570Z,0.10
2022-10-21T14:07:04.946Z,0.10
2022-10-21T14:09:45.247Z,0.20
2022-10-21T14:12:32.326Z,0.10
2022-10-21T14:15:11.511Z,0.08
2022-10-21T14:17:44.030Z,0.10
2022-10-21T14:20:17.869Z,0.10
2022-10-21T14:22:49.949Z,0.20
2022-10-21T14:25:19.111Z,0.20
2022-10-21T14:27:48.810Z,0.20
2022-10-21T14:30:24.769Z,0.10
2022-10-21T14:32:53.271Z,0.35
2022-10-21T14:35:20.252Z,0.22
2022-10-21T14:37:56.364Z,0.20
2022-10-21T14:40:32.356Z,0.32
2022-10-21T14:43:19.636Z,0.80
2022-10-21T14:45:55.791Z,0.10
2022-10-21T14:48:44.765Z,0.22
2022-10-21T14:51:17.673Z,0.13
2022-10-21T14:54:02.109Z,0.10
2022-10-21T14:56:40.418Z,0.52
2022-10-21T14:59:16.582Z,0.10
2022-10-21T15:01:46.697Z,0.20
2022-10-21T15:04:51.539Z,0.20
2022-10-21T15:07:31.484Z,0.10
2022-10-21T15:10:07.421Z,0.20
2022-10-21T15:12:52.851Z,0.32
2022-10-21T15:15:42.392Z,0.30
2022-10-21T15:18:12.376Z,0.20
2022-10-21T15:20:39.441Z,0.43
2022-10-21T15:23:06.507Z,0.30
2022-10-21T15:28:11.371Z,0.10
2022-10-21T15:30:38.343Z,0.20
2022-10-21T15:33:11.504Z,0.20
2022-10-21T15:35:38.366Z,0.03
2022-10-21T15:38:05.166Z,0.10
2022-10-21T15:40:33.541Z,0.35
2022-10-21T15:43:01.337Z,0.63
2022-10-21T15:45:28.805Z,0.20
2022-10-21T15:47:56.070Z,3.63
2022-10-21T15:50:25.913Z,0.10
2022-10-21T15:52:53.627Z,0.68
2022-10-21T15:55:20.773Z,0.38
2022-10-21T15:57:48.018Z,0.30
2022-10-21T16:00:20.594Z,0.35
2022-10-21T16:02:49.197Z,0.20
2022-10-21T16:05:17.162Z,0.90
2022-10-21T16:07:44.760Z,0.45
2022-10-21T16:10:25.803Z,0.52
2022-10-21T16:12:52.778Z,0.77
2022-10-21T16:15:20.380Z,0.30
2022-10-21T16:17:50.119Z,0.40
2022-10-21T16:20:30.902Z,0.60
2022-10-21T16:23:02.172Z,0.30
2022-10-21T16:25:31.572Z,2.40
2022-10-21T16:27:58.679Z,0.30
2022-10-21T16:30:35.458Z,0.25
2022-10-21T16:33:02.485Z,0.40
2022-10-21T16:35:29.630Z,0.65
2022-10-21T16:37:56.762Z,1.40
2022-10-21T16:40:29.596Z,0.20
2022-10-21T16:42:56.717Z,12.63
2022-10-21T16:45:29.384Z,0.20
2022-10-21T16:47:59.286Z,0.47
2022-10-21T16:50:30.382Z,1.75
2022-10-21T16:52:58.553Z,0.63
2022-10-21T16:55:25.648Z,0.63
2022-10-21T16:57:52.735Z,0.40
2022-10-21T17:00:19.727Z,0.30
2022-10-21T17:02:49.624Z,0.30
2022-10-21T17:05:17.128Z,0.10
2022-10-21T17:07:43.976Z,0.43
2022-10-21T17:10:11.271Z,0.75
2022-10-21T17:12:38.317Z,0.10
2022-10-21T17:15:06.249Z,0.85
2022-10-21T17:17:33.596Z,0.65
2022-10-21T17:20:00.907Z,0.13
2022-10-21T17:22:27.799Z,1.02
2022-10-21T17:24:54.701Z,0.40
2022-10-21T17:27:22.065Z,0.30
2022-10-21T17:29:49.218Z,2.22
2022-10-21T17:32:16.879Z,0.95
2022-10-21T17:34:44.009Z,0.90
2022-10-21T17:37:12.331Z,6.63
2022-10-21T17:39:39.650Z,6.43
2022-10-21T17:42:07.324Z,10.15
2022-10-21T17:44:34.683Z,5.90
2022-10-21T17:47:01.713Z,5.82
2022-10-21T17:49:29.006Z,7.95
2022-10-21T17:51:56.826Z,9.43
2022-10-21T17:54:27.844Z,6.22
2022-10-21T17:56:56.912Z,6.00
2022-10-21T17:59:24.325Z,5.82
2022-10-21T18:01:51.304Z,7.28
2022-10-21T18:04:18.755Z,8.00
2022-10-21T18:06:45.623Z,5.32
2022-10-21T18:09:12.687Z,6.30
2022-10-21T18:11:39.870Z,9.57
2022-10-21T18:14:06.948Z,7.30
2022-10-21T18:16:34.922Z,5.85
2022-10-21T18:19:03.148Z,8.65
2022-10-21T18:21:30.963Z,7.78
2022-10-21T18:23:58.175Z,5.07
2022-10-21T18:26:28.499Z,6.57
2022-10-21T18:29:00.669Z,6.13
2022-10-21T18:31:30.250Z,9.10
2022-10-21T18:33:58.979Z,7.03
2022-10-21T18:36:26.655Z,6.45
2022-10-21T18:38:54.788Z,7.40
2022-10-21T18:41:22.637Z,4.65
2022-10-21T18:44:00.414Z,5.30
2022-10-21T18:46:28.765Z,6.28
2022-10-21T18:48:55.810Z,5.88
2022-10-21T18:51:24.001Z,10.07
2022-10-21T18:53:53.270Z,6.35
2022-10-21T18:56:22.489Z,9.52
2022-10-21T18:58:50.083Z,7.18
2022-10-21T19:01:18.562Z,7.10
2022-10-21T19:03:46.691Z,4.93
2022-10-21T19:06:17.220Z,6.05
2022-10-21T19:08:44.550Z,7.10
2022-10-21T19:11:11.726Z,9.85
2022-10-21T19:13:38.571Z,4.13
2022-10-21T19:16:05.851Z,6.28
2022-10-21T19:18:33.586Z,6.30
2022-10-21T19:21:00.752Z,6.03
2022-10-21T19:23:31.572Z,9.85
2022-10-21T19:26:06.920Z,7.43
2022-10-21T19:28:35.823Z,6.35
2022-10-21T19:31:03.375Z,6.50
2022-10-21T19:33:31.242Z,7.88
2022-10-21T19:36:02.790Z,9.50
2022-10-21T19:38:43.682Z,3.55
2022-10-21T19:41:13.686Z,4.75
2022-10-21T19:43:40.641Z,7.53
2022-10-21T19:46:08.599Z,4.43
2022-10-21T19:48:37.014Z,4.60
2022-10-21T19:51:07.974Z,6.70
2022-10-21T19:53:36.551Z,7.47
2022-10-21T19:56:05.750Z,5.93
2022-10-21T19:58:34.024Z,5.40
2022-10-21T20:01:09.880Z,5.80
2022-10-21T20:03:37.687Z,9.55
2022-10-21T20:08:42.274Z,6.15
2022-10-21T20:11:12.415Z,6.95
2022-10-21T20:13:39.649Z,10.98
2022-10-21T20:16:07.099Z,10.32
2022-10-21T20:18:34.343Z,9.00
2022-10-21T20:21:07.712Z,4.95
2022-10-21T20:23:35.399Z,6.97
2022-10-21T20:26:03.492Z,9.40
2022-10-21T20:28:30.934Z,9.15
2022-10-21T20:31:00.057Z,7.15
2022-10-21T20:33:27.884Z,6.03
2022-10-21T20:35:54.752Z,7.30
2022-10-21T20:38:22.110Z,6.20
2022-10-21T20:41:03.041Z,9.30
2022-10-21T20:43:30.432Z,8.93
2022-10-21T20:46:00.634Z,6.45
2022-10-21T20:48:28.629Z,7.93
2022-10-21T20:51:08.288Z,5.35
2022-10-21T20:53:35.659Z,7.72
2022-10-21T20:56:06.592Z,6.63
2022-10-21T20:58:38.916Z,5.13
2022-10-21T21:01:09.010Z,7.88
2022-10-21T21:03:37.945Z,8.77
2022-10-21T21:06:05.974Z,5.32
2022-10-21T21:08:37.299Z,10.15
2022-10-21T21:11:07.107Z,19.65
2022-10-21T21:13:34.953Z,10.82
2022-10-21T21:16:08.487Z,6.55
2022-10-21T21:18:37.405Z,9.63
2022-10-21T21:21:06.984Z,6.20
2022-10-21T21:23:35.240Z,8.30
2022-10-21T21:26:04.314Z,9.57
2022-10-21T21:28:35.591Z,7.25
2022-10-21T21:31:05.086Z,9.52
2022-10-21T21:33:33.146Z,13.15
2022-10-21T21:36:01.175Z,5.85
2022-10-21T21:38:28.630Z,8.18
2022-10-21T21:40:55.893Z,6.20
2022-10-21T21:43:22.906Z,9.23
2022-10-21T21:45:50.327Z,9.35
2022-10-21T21:48:18.398Z,6.20
2022-10-21T21:50:46.654Z,9.75
2022-10-21T21:53:16.357Z,24.38
2022-10-21T21:55:43.619Z,26.15
2022-10-21T21:58:10.491Z,11.27
2022-10-21T22:00:37.565Z,8.82
2022-10-21T22:03:05.788Z,8.80
2022-10-21T22:05:32.797Z,8.30
2022-10-21T22:08:00.259Z,9.68
2022-10-21T22:10:27.846Z,11.38
2022-10-21T22:12:58.516Z,7.82
2022-10-21T22:18:13.094Z,7.68
2022-10-21T22:20:40.962Z,6.63
2022-10-21T22:23:08.015Z,7.53
2022-10-21T22:25:35.467Z,6.60
2022-10-21T22:28:02.545Z,7.00
2022-10-21T22:30:29.348Z,7.10
2022-10-21T22:32:56.307Z,6.20
2022-10-21T22:35:23.169Z,5.57
2022-10-21T22:37:49.936Z,6.78
2022-10-21T22:40:16.925Z,12.95
2022-10-21T22:45:15.964Z,8.18
2022-10-21T22:47:43.027Z,10.80
2022-10-21T22:50:10.073Z,11.48
2022-10-21T22:52:37.226Z,7.13
2022-10-21T22:55:04.607Z,10.38
2022-10-21T22:57:31.698Z,8.68
2022-10-21T22:59:58.542Z,6.55
2022-10-21T23:02:25.452Z,8.38
2022-10-21T23:04:52.446Z,9.80
2022-10-21T23:07:19.486Z,11.98
2022-10-21T23:09:46.310Z,7.63
2022-10-21T23:12:13.349Z,8.23
2022-10-21T23:14:40.303Z,5.80
2022-10-21T23:17:07.218Z,7.03
2022-10-21T23:19:34.279Z,4.80
2022-10-21T23:22:01.160Z,6.00
2022-10-21T23:24:27.981Z,5.13
2022-10-21T23:26:59.081Z,8.55
2022-10-21T23:29:28.379Z,4.97
2022-10-21T23:31:57.417Z,9.93
2022-10-21T23:34:24.517Z,9.10
2022-10-21T23:36:51.757Z,8.48
2022-10-21T23:39:18.984Z,9.30
2022-10-21T23:41:47.042Z,6.68
2022-10-21T23:44:14.109Z,7.05
2022-10-21T23:46:41.495Z,7.65
2022-10-21T23:49:09.486Z,5.90
2022-10-21T23:51:36.777Z,9.82
2022-10-21T23:54:03.943Z,8.20
2022-10-21T23:56:32.609Z,8.10
2022-10-21T23:59:01.305Z,7.90
